createdAt,value
2018-10-18T00:01:31.327Z,98369.41
2018-10-18T00:04:01.642Z,98368.78
2018-10-18T00:06:32.580Z,98369.94
2018-10-18T00:09:03.588Z,98369.56
2018-10-18T00:11:34.264Z,98372.78
2018-10-18T00:14:05.333Z,98369.56
2018-10-18T00:16:36.065Z,98370.28
2018-10-18T00:19:06.687Z,98366.35
2018-10-18T00:21:37.584Z,98373.38
2018-10-18T00:24:08.672Z,98362.91
2018-10-18T00:26:39.432Z,98355.98
2018-10-18T00:29:10.016Z,98367.40
2018-10-18T00:31:40.617Z,98365.38
2018-10-18T00:34:11.234Z,98359.62
2018-10-18T00:36:41.887Z,98358.80
2018-10-18T00:39:13.785Z,98359.69
2018-10-18T00:41:44.380Z,98358.27
2018-10-18T00:44:15.283Z,98352.20
2018-10-18T00:46:45.981Z,98354.56
2018-10-18T00:49:16.563Z,98352.66
2018-10-18T00:51:46.891Z,98350.85
2018-10-18T00:54:17.499Z,98357.23
2018-10-18T00:56:48.059Z,98355.55
2018-10-18T00:59:18.690Z,98357.63
2018-10-18T01:01:49.256Z,98351.78
2018-10-18T01:04:19.911Z,98354.41
2018-10-18T01:06:50.491Z,98348.53
2018-10-18T01:09:21.088Z,98350.32
2018-10-18T01:11:51.653Z,98351.52
2018-10-18T01:14:22.464Z,98346.39
2018-10-18T01:16:57.888Z,98352.00
2018-10-18T01:19:28.935Z,98354.46
2018-10-18T01:21:59.547Z,98355.50
2018-10-18T01:24:30.141Z,98352.89
2018-10-18T01:27:01.079Z,98353.00
2018-10-18T01:29:31.744Z,98352.39
2018-10-18T01:32:02.399Z,98349.48
2018-10-18T01:34:33.136Z,98352.20
2018-10-18T01:37:03.784Z,98351.35
2018-10-18T01:39:34.403Z,98348.50
2018-10-18T01:42:05.962Z,98348.95
2018-10-18T01:44:36.671Z,98350.37
2018-10-18T01:47:07.357Z,98349.17
2018-10-18T01:49:37.963Z,98355.59
2018-10-18T01:52:08.555Z,98348.72
2018-10-18T01:54:39.178Z,98346.42
2018-10-18T01:57:09.766Z,98347.36
2018-10-18T01:59:40.535Z,98348.53
2018-10-18T02:02:11.423Z,98348.53
2018-10-18T02:04:42.131Z,98341.84
2018-10-18T02:07:12.815Z,98345.47
2018-10-18T02:09:43.355Z,98349.27
2018-10-18T02:12:14.022Z,98348.06
2018-10-18T02:14:44.762Z,98347.45
2018-10-18T02:17:15.393Z,98349.23
2018-10-18T02:19:46.004Z,98351.16
2018-10-18T02:22:16.588Z,98358.62
2018-10-18T02:24:47.612Z,98359.59
2018-10-18T02:27:18.185Z,98364.27
2018-10-18T02:29:48.955Z,98350.69
2018-10-18T02:32:19.559Z,98348.81
2018-10-18T02:34:50.133Z,98349.22
2018-10-18T02:37:20.752Z,98347.47
2018-10-18T02:39:51.336Z,98348.77
2018-10-18T02:42:22.119Z,98344.27
2018-10-18T02:44:52.728Z,98350.25
2018-10-18T02:47:23.682Z,98351.80
2018-10-18T02:49:54.500Z,98349.59
2018-10-18T02:52:25.324Z,98348.98
2018-10-18T02:54:55.907Z,98355.78
2018-10-18T02:57:26.479Z,98350.70
2018-10-18T02:59:57.102Z,98352.01
2018-10-18T03:02:27.835Z,98350.32
2018-10-18T03:04:58.503Z,98351.08
2018-10-18T03:07:29.096Z,98354.69
2018-10-18T03:09:59.671Z,98357.20
2018-10-18T03:12:31.336Z,98359.33
2018-10-18T03:15:01.942Z,98364.07
2018-10-18T03:17:32.551Z,98372.01
2018-10-18T03:20:03.141Z,98370.87
2018-10-18T03:22:33.763Z,98369.84
2018-10-18T03:25:04.457Z,98370.59
2018-10-18T03:27:35.095Z,98366.38
2018-10-18T03:30:07.167Z,98367.34
2018-10-18T03:32:37.873Z,98365.03
2018-10-18T03:35:09.502Z,98364.86
2018-10-18T03:37:40.424Z,98373.17
2018-10-18T03:40:11.331Z,98371.97
2018-10-18T03:42:41.929Z,98374.20
2018-10-18T03:45:12.519Z,98371.97
2018-10-18T03:47:43.060Z,98369.36
2018-10-18T03:50:13.671Z,98376.77
2018-10-18T03:52:44.252Z,98376.30
2018-10-18T03:55:14.848Z,98375.91
2018-10-18T03:57:45.419Z,98379.11
2018-10-18T04:00:16.065Z,98377.70
2018-10-18T04:02:46.815Z,98380.69
2018-10-18T04:05:17.396Z,98382.20
2018-10-18T04:07:48.018Z,98381.02
2018-10-18T04:10:18.599Z,98379.91
2018-10-18T04:12:49.284Z,98383.20
2018-10-18T04:15:20.000Z,98377.42
2018-10-18T04:17:50.623Z,98375.39
2018-10-18T04:20:21.439Z,98381.30
2018-10-18T04:22:52.276Z,98381.20
2018-10-18T04:25:22.908Z,98375.97
2018-10-18T04:27:53.723Z,98381.44
2018-10-18T04:30:24.348Z,98375.50
2018-10-18T04:32:54.933Z,98381.02
2018-10-18T04:35:25.527Z,98382.52
2018-10-18T04:37:56.230Z,98378.17
2018-10-18T04:40:26.855Z,98385.27
2018-10-18T04:42:57.416Z,98387.60
2018-10-18T04:45:28.240Z,98390.49
2018-10-18T04:47:58.956Z,98391.03
2018-10-18T04:50:29.654Z,98392.19
2018-10-18T04:53:00.235Z,98392.64
2018-10-18T04:55:30.847Z,98389.78
2018-10-18T04:58:01.448Z,98391.28
2018-10-18T05:00:32.057Z,98394.23
2018-10-18T05:03:02.832Z,98396.65
2018-10-18T05:05:50.568Z,98389.02
2018-10-18T05:08:22.200Z,98393.98
2018-10-18T05:10:52.846Z,98401.43
2018-10-18T05:13:23.503Z,98395.29
2018-10-18T05:15:54.246Z,98396.94
2018-10-18T05:18:25.077Z,98401.62
2018-10-18T05:20:55.694Z,98408.48
2018-10-18T05:23:26.303Z,98403.94
2018-10-18T05:25:57.288Z,98404.32
2018-10-18T05:28:27.880Z,98402.82
2018-10-18T05:30:58.517Z,98400.66
2018-10-18T05:33:29.300Z,98407.18
2018-10-18T05:35:59.955Z,98405.43
2018-10-18T05:38:30.820Z,98407.08
2018-10-18T05:41:01.638Z,98414.91
2018-10-18T05:43:32.252Z,98414.47
2018-10-18T05:46:02.837Z,98416.02
2018-10-18T05:48:33.675Z,98417.98
2018-10-18T05:51:04.261Z,98421.52
2018-10-18T05:53:34.976Z,98424.61
2018-10-18T05:56:05.676Z,98423.50
2018-10-18T05:58:36.298Z,98432.05
2018-10-18T06:01:07.944Z,98434.66
2018-10-18T06:03:38.664Z,98432.88
2018-10-18T06:06:09.308Z,98433.55
2018-10-18T06:08:39.894Z,98432.05
2018-10-18T06:11:28.131Z,98438.72
2018-10-18T06:13:58.750Z,98440.66
2018-10-18T06:16:29.550Z,98446.78
2018-10-18T06:19:00.256Z,98447.06
2018-10-18T06:21:31.082Z,98451.52
2018-10-18T06:24:01.843Z,98444.97
2018-10-18T06:26:32.423Z,98447.91
2018-10-18T06:29:03.069Z,98451.81
2018-10-18T06:31:33.873Z,98450.83
2018-10-18T06:34:04.540Z,98448.64
2018-10-18T06:36:35.148Z,98452.84
2018-10-18T06:39:08.772Z,98452.03
2018-10-18T06:41:40.427Z,98460.19
2018-10-18T06:44:11.042Z,98460.33
2018-10-18T06:46:42.082Z,98462.94
2018-10-18T06:49:12.988Z,98464.48
2018-10-18T06:51:43.707Z,98465.17
2018-10-18T06:54:14.313Z,98471.19
2018-10-18T06:56:45.295Z,98470.29
2018-10-18T06:59:15.904Z,98466.40
2018-10-18T07:01:47.054Z,98465.05
2018-10-18T07:04:18.619Z,98472.32
2018-10-18T07:06:49.477Z,98469.63
2018-10-18T07:09:20.094Z,98473.61
2018-10-18T07:11:50.707Z,98482.78
2018-10-18T07:14:21.304Z,98487.70
2018-10-18T07:16:51.926Z,98486.45
2018-10-18T07:19:22.517Z,98493.47
2018-10-18T07:21:53.515Z,98489.22
2018-10-18T07:24:24.107Z,98492.13
2018-10-18T07:26:54.709Z,98501.66
2018-10-18T07:29:25.359Z,98501.13
2018-10-18T07:31:55.950Z,98506.09
2018-10-18T07:34:26.815Z,98507.45
2018-10-18T07:36:57.399Z,98509.25
2018-10-18T07:39:27.999Z,98505.48
2018-10-18T07:41:58.634Z,98514.05
2018-10-18T07:44:29.420Z,98520.53
2018-10-18T07:47:00.086Z,98518.41
2018-10-18T07:49:30.839Z,98514.47
2018-10-18T07:52:01.436Z,98521.77
2018-10-18T07:54:32.091Z,98520.13
2018-10-18T07:57:02.667Z,98521.14
2018-10-18T07:59:33.302Z,98517.16
2018-10-18T08:02:04.238Z,98517.55
2018-10-18T08:04:34.896Z,98515.95
2018-10-18T08:07:05.939Z,98524.68
2018-10-18T08:09:36.796Z,98533.15
2018-10-18T08:12:07.444Z,98527.56
2018-10-18T08:14:38.064Z,98527.58
2018-10-18T08:17:08.667Z,98529.70
2018-10-18T08:19:39.243Z,98525.29
2018-10-18T08:22:09.871Z,98525.28
2018-10-18T08:24:40.631Z,98526.60
2018-10-18T08:27:11.706Z,98521.89
2018-10-18T08:29:42.380Z,98522.53
2018-10-18T08:32:12.962Z,98519.86
2018-10-18T08:34:43.761Z,98523.91
2018-10-18T08:37:14.389Z,98522.89
2018-10-18T08:39:45.387Z,98524.22
2018-10-18T08:42:15.977Z,98529.09
2018-10-18T08:44:46.621Z,98527.27
2018-10-18T08:47:17.203Z,98528.95
2018-10-18T08:49:47.978Z,98525.09
2018-10-18T08:52:18.800Z,98520.09
2018-10-18T08:54:49.983Z,98519.89
2018-10-18T08:57:20.652Z,98525.33
2018-10-18T08:59:51.452Z,98522.40
2018-10-18T09:02:22.086Z,98526.91
2018-10-18T09:04:52.874Z,98525.06
2018-10-18T09:07:23.517Z,98526.03
2018-10-18T09:09:54.100Z,98529.14
2018-10-18T09:12:24.905Z,98522.52
2018-10-18T09:14:55.502Z,98522.39
2018-10-18T09:17:26.100Z,98527.67
2018-10-18T09:19:56.693Z,98523.80
2018-10-18T09:22:27.319Z,98528.80
2018-10-18T09:24:57.935Z,98522.06
2018-10-18T09:27:28.943Z,98520.05
2018-10-18T09:29:59.522Z,98512.83
2018-10-18T09:32:30.248Z,98514.44
2018-10-18T09:35:00.844Z,98520.02
2018-10-18T09:37:31.431Z,98514.36
2018-10-18T09:40:02.046Z,98514.69
2018-10-18T09:42:32.672Z,98518.48
2018-10-18T09:45:03.364Z,98514.80
2018-10-18T09:47:34.103Z,98513.58
2018-10-18T09:50:05.239Z,98509.39
2018-10-18T09:52:35.856Z,98507.17
2018-10-18T09:55:08.481Z,98508.92
2018-10-18T09:57:39.287Z,98507.16
2018-10-18T10:02:16.827Z,98510.69
2018-10-18T10:04:47.468Z,98505.14
2018-10-18T10:07:18.104Z,98504.97
2018-10-18T10:09:48.765Z,98499.53
2018-10-18T10:12:19.615Z,98500.83
2018-10-18T10:14:50.517Z,98497.44
2018-10-18T10:17:21.183Z,98498.23
2018-10-18T10:19:52.028Z,98498.68
2018-10-18T10:22:22.616Z,98496.48
2018-10-18T10:24:53.257Z,98487.27
2018-10-18T10:27:24.097Z,98490.19
2018-10-18T10:29:54.699Z,98484.28
2018-10-18T10:32:25.355Z,98482.40
2018-10-18T10:34:55.963Z,98480.05
2018-10-18T10:37:26.770Z,98482.23
2018-10-18T10:39:57.420Z,98476.32
2018-10-18T10:42:28.199Z,98473.88
2018-10-18T10:44:59.507Z,98468.00
2018-10-18T10:47:30.482Z,98470.19
2018-10-18T10:50:01.069Z,98467.41
2018-10-18T10:52:31.869Z,98463.63
2018-10-18T10:55:02.953Z,98460.58
2018-10-18T10:57:33.583Z,98461.81
2018-10-18T11:00:04.255Z,98460.23
2018-10-18T11:02:35.060Z,98461.57
2018-10-18T11:05:06.784Z,98455.63
2018-10-18T11:07:37.490Z,98444.90
2018-10-18T11:10:08.391Z,98444.75
2018-10-18T11:12:40.308Z,98446.09
2018-10-18T11:15:11.357Z,98442.80
2018-10-18T11:17:42.126Z,98432.50
2018-10-18T11:20:13.012Z,98425.21
2018-10-18T11:22:43.758Z,98427.89
2018-10-18T11:25:14.535Z,98424.08
2018-10-18T11:27:45.158Z,98422.43
2018-10-18T11:30:15.806Z,98419.61
2018-10-18T11:32:46.535Z,98420.61
2018-10-18T11:35:17.148Z,98418.14
2018-10-18T11:37:48.064Z,98420.95
2018-10-18T11:40:18.665Z,98419.61
2018-10-18T11:42:49.633Z,98417.63
2018-10-18T11:45:20.370Z,98415.97
2018-10-18T11:47:50.992Z,98415.97
2018-10-18T11:50:22.060Z,98413.63
2018-10-18T11:52:52.854Z,98412.30
2018-10-18T11:55:23.668Z,98414.63
2018-10-18T11:57:54.296Z,98409.14
2018-10-18T12:00:25.452Z,98408.98
2018-10-18T12:02:56.088Z,98409.00
2018-10-18T12:05:26.728Z,98408.50
2018-10-18T12:07:57.546Z,98405.67
2018-10-18T12:10:28.341Z,98398.20
2018-10-18T12:12:58.944Z,98397.53
2018-10-18T12:15:29.574Z,98394.03
2018-10-18T12:18:00.176Z,98394.52
2018-10-18T12:20:30.801Z,98393.05
2018-10-18T12:23:01.462Z,98390.39
2018-10-18T12:25:32.212Z,98385.56
2018-10-18T12:28:02.893Z,98385.39
2018-10-18T12:30:33.489Z,98383.92
2018-10-18T12:33:04.113Z,98371.28
2018-10-18T12:35:34.754Z,98378.59
2018-10-18T12:38:05.900Z,98379.08
2018-10-18T12:40:36.632Z,98377.75
2018-10-18T12:43:07.411Z,98373.26
2018-10-18T12:45:38.014Z,98374.08
2018-10-18T12:48:08.828Z,98379.56
2018-10-18T12:50:39.572Z,98378.23
2018-10-18T12:53:10.148Z,98384.38
2018-10-18T12:55:40.793Z,98374.42
2018-10-18T12:58:11.381Z,98377.73
2018-10-18T13:03:11.436Z,98373.43
2018-10-18T13:05:42.043Z,98370.43
2018-10-18T13:10:42.344Z,98369.95
2018-10-18T13:13:13.005Z,98370.27
2018-10-18T13:15:43.595Z,98363.81
2018-10-18T13:18:14.422Z,98367.12
2018-10-18T13:20:45.163Z,98367.30
2018-10-18T13:23:15.752Z,98357.14
2018-10-18T13:25:46.380Z,98361.81
2018-10-18T13:28:17.076Z,98364.77
2018-10-18T13:30:47.721Z,98363.95
2018-10-18T13:33:18.305Z,98364.13
2018-10-18T13:35:48.916Z,98361.30
2018-10-18T13:38:19.509Z,98357.79
2018-10-18T13:40:50.168Z,98361.64
2018-10-18T13:43:20.968Z,98358.12
2018-10-18T13:45:51.615Z,98366.44
2018-10-18T13:48:22.242Z,98361.94
2018-10-18T13:50:52.556Z,98366.78
2018-10-18T13:53:23.416Z,98363.95
2018-10-18T13:55:54.058Z,98364.13
2018-10-18T13:58:25.147Z,98365.62
2018-10-18T14:00:55.749Z,98358.30
2018-10-18T14:03:26.437Z,98362.28
2018-10-18T14:05:57.043Z,98355.47
2018-10-18T14:08:27.778Z,98357.31
2018-10-18T14:10:58.549Z,98355.30
2018-10-18T14:13:29.314Z,98348.48
2018-10-18T14:16:00.132Z,98357.31
2018-10-18T14:18:30.765Z,98350.33
2018-10-18T14:21:01.375Z,98346.34
2018-10-18T14:23:32.151Z,98348.00
2018-10-18T14:26:03.036Z,98353.48
2018-10-18T14:28:33.826Z,98345.86
2018-10-18T14:31:04.587Z,98352.64
2018-10-18T14:33:35.248Z,98345.17
2018-10-18T14:36:07.132Z,98347.86
2018-10-18T14:38:38.111Z,98350.86
2018-10-18T14:41:08.924Z,98347.55
2018-10-18T14:43:39.698Z,98353.34
2018-10-18T14:46:10.453Z,98345.37
2018-10-18T14:48:41.142Z,98344.88
2018-10-18T14:51:11.795Z,98353.20
2018-10-18T14:53:42.398Z,98357.52
2018-10-18T14:56:13.113Z,98353.70
2018-10-18T14:58:44.082Z,98352.88
2018-10-18T15:01:14.756Z,98356.03
2018-10-18T15:03:45.392Z,98358.86
2018-10-18T15:06:16.327Z,98351.88
2018-10-18T15:08:46.702Z,98350.25
2018-10-18T15:11:17.683Z,98358.52
2018-10-18T15:13:48.484Z,98354.87
2018-10-18T15:16:19.154Z,98360.86
2018-10-18T15:18:49.866Z,98362.19
2018-10-18T15:21:20.428Z,98364.01
2018-10-18T15:23:51.166Z,98361.19
2018-10-18T15:26:21.856Z,98361.34
2018-10-18T15:28:52.661Z,98367.48
2018-10-18T15:31:23.467Z,98372.45
2018-10-18T15:33:54.071Z,98368.80
2018-10-18T15:36:24.788Z,98370.76
2018-10-18T15:38:55.589Z,98366.78
2018-10-18T15:41:26.264Z,98365.78
2018-10-18T15:43:56.909Z,98366.77
2018-10-18T15:46:27.682Z,98368.91
2018-10-18T15:48:58.274Z,98368.55
2018-10-18T15:51:28.924Z,98371.84
2018-10-18T15:53:59.557Z,98379.64
2018-10-18T15:56:30.487Z,98380.09
2018-10-18T15:59:01.220Z,98379.70
2018-10-18T16:01:31.958Z,98385.11
2018-10-18T16:04:02.566Z,98392.37
2018-10-18T16:06:33.235Z,98396.63
2018-10-18T16:09:04.551Z,98403.70
2018-10-18T16:11:35.215Z,98404.33
2018-10-18T16:14:06.380Z,98405.80
2018-10-18T16:16:37.150Z,98400.58
2018-10-18T16:19:07.555Z,98404.70
2018-10-18T16:21:38.219Z,98411.83
2018-10-18T16:24:08.897Z,98415.58
2018-10-18T16:26:40.053Z,98412.52
2018-10-18T16:29:10.934Z,98424.20
2018-10-18T16:31:41.766Z,98426.26
2018-10-18T16:34:12.381Z,98426.29
2018-10-18T16:36:43.003Z,98436.47
2018-10-18T16:39:14.596Z,98433.00
2018-10-18T16:41:45.254Z,98441.03
2018-10-18T16:44:16.180Z,98440.11
2018-10-18T16:46:47.303Z,98444.44
2018-10-18T16:49:18.156Z,98447.48
2018-10-18T16:51:48.776Z,98456.37
2018-10-18T16:54:19.476Z,98457.09
2018-10-18T16:56:50.279Z,98461.75
2018-10-18T16:59:22.173Z,98453.23
2018-10-18T17:01:52.900Z,98454.19
2018-10-18T17:04:23.874Z,98461.75
2018-10-18T17:06:54.588Z,98453.96
2018-10-18T17:09:25.481Z,98457.55
2018-10-18T17:11:56.324Z,98464.75
2018-10-18T17:14:27.772Z,98455.20
2018-10-18T17:16:58.439Z,98469.13
2018-10-18T17:19:29.376Z,98465.75
2018-10-18T17:22:00.024Z,98466.36
2018-10-18T17:24:30.871Z,98469.59
2018-10-18T17:27:01.572Z,98473.70
2018-10-18T17:29:32.359Z,98471.27
2018-10-18T17:32:02.982Z,98469.55
2018-10-18T17:34:33.851Z,98474.57
2018-10-18T17:37:04.804Z,98474.14
2018-10-18T17:39:35.427Z,98473.25
2018-10-18T17:42:06.476Z,98468.75
2018-10-18T17:44:37.272Z,98474.62
2018-10-18T17:47:07.986Z,98475.86
2018-10-18T17:49:38.806Z,98483.14
2018-10-18T17:52:09.457Z,98480.47
2018-10-18T17:54:40.211Z,98480.65
2018-10-18T17:57:11.102Z,98478.94
2018-10-18T17:59:41.770Z,98488.48
2018-10-18T18:02:13.259Z,98486.41
2018-10-18T18:04:44.012Z,98488.66
2018-10-18T18:07:14.930Z,98492.80
2018-10-18T18:09:45.822Z,98496.62
2018-10-18T18:12:16.763Z,98499.23
2018-10-18T18:14:47.347Z,98502.98
2018-10-18T18:17:18.012Z,98509.09
2018-10-18T18:19:48.659Z,98511.12
2018-10-18T18:22:19.345Z,98511.55
2018-10-18T18:24:49.987Z,98514.55
2018-10-18T18:27:20.642Z,98517.33
2018-10-18T18:29:51.352Z,98516.43
2018-10-18T18:32:22.000Z,98522.07
2018-10-18T18:34:52.576Z,98518.11
2018-10-18T18:37:23.233Z,98526.17
2018-10-18T18:39:54.015Z,98525.42
2018-10-18T18:42:24.731Z,98526.48
2018-10-18T18:45:00.501Z,98529.87
2018-10-18T18:47:31.449Z,98526.77
2018-10-18T18:50:02.243Z,98525.86
2018-10-18T18:52:33.019Z,98527.20
2018-10-18T18:55:03.690Z,98527.56
2018-10-18T18:57:34.340Z,98528.67
2018-10-18T19:00:05.410Z,98527.27
2018-10-18T19:02:36.346Z,98534.78
2018-10-18T19:05:07.891Z,98538.48
2018-10-18T19:07:38.625Z,98539.25
2018-10-18T19:10:09.888Z,98534.80
2018-10-18T19:12:40.564Z,98541.26
2018-10-18T19:15:11.350Z,98543.45
2018-10-18T19:17:42.120Z,98547.08
2018-10-18T19:20:13.289Z,98539.36
2018-10-18T19:22:44.044Z,98545.05
2018-10-18T19:25:14.928Z,98548.23
2018-10-18T19:27:45.521Z,98549.55
2018-10-18T19:30:16.662Z,98541.72
2018-10-18T19:32:47.327Z,98553.91
2018-10-18T19:35:17.944Z,98549.00
2018-10-18T19:37:48.649Z,98552.40
2018-10-18T19:40:19.502Z,98555.48
2018-10-18T19:42:50.132Z,98554.99
2018-10-18T19:45:20.783Z,98555.71
2018-10-18T19:47:51.470Z,98559.16
2018-10-18T19:50:22.124Z,98564.74
2018-10-18T19:52:52.759Z,98556.97
2018-10-18T19:55:23.527Z,98560.79
2018-10-18T19:57:54.258Z,98557.83
2018-10-18T20:00:25.049Z,98561.91
2018-10-18T20:02:55.676Z,98559.29
2018-10-18T20:05:26.299Z,98558.66
2018-10-18T20:07:57.093Z,98560.24
2018-10-18T20:10:27.810Z,98576.78
2018-10-18T20:12:58.676Z,98573.81
2018-10-18T20:15:29.493Z,98566.64
2018-10-18T20:18:00.160Z,98564.53
2018-10-18T20:20:30.956Z,98573.81
2018-10-18T20:23:01.588Z,98569.73
2018-10-18T20:25:32.435Z,98564.59
2018-10-18T20:28:03.273Z,98571.50
2018-10-18T20:30:33.901Z,98564.48
2018-10-18T20:33:04.871Z,98574.03
2018-10-18T20:35:35.711Z,98579.17
2018-10-18T20:38:06.720Z,98580.57
2018-10-18T20:40:37.421Z,98580.05
2018-10-18T20:43:08.307Z,98584.52
2018-10-18T20:45:38.915Z,98583.98
2018-10-18T20:48:09.729Z,98585.27
2018-10-18T20:50:40.778Z,98585.41
2018-10-18T20:53:11.508Z,98589.73
2018-10-18T20:55:42.213Z,98589.65
2018-10-18T20:58:13.089Z,98593.73
2018-10-18T21:00:43.705Z,98595.17
2018-10-18T21:03:14.430Z,98599.88
2018-10-18T21:05:45.216Z,98598.42
2018-10-18T21:08:15.815Z,98607.33
2018-10-18T21:10:46.484Z,98604.20
2018-10-18T21:13:17.154Z,98602.93
2018-10-18T21:15:47.823Z,98598.13
2018-10-18T21:18:18.668Z,98599.91
2018-10-18T21:20:49.307Z,98602.92
2018-10-18T21:23:19.974Z,98606.41
2018-10-18T21:25:50.563Z,98608.56
2018-10-18T21:28:21.227Z,98612.26
2018-10-18T21:30:51.843Z,98611.20
2018-10-18T21:33:22.464Z,98608.11
2018-10-18T21:35:53.073Z,98615.52
2018-10-18T21:38:23.881Z,98611.57
2018-10-18T21:40:54.501Z,98609.55
2018-10-18T21:43:25.551Z,98614.08
2018-10-18T21:45:58.031Z,98617.20
2018-10-18T21:48:29.772Z,98613.25
2018-10-18T21:51:00.395Z,98613.50
2018-10-18T21:53:31.187Z,98617.74
2018-10-18T21:56:01.826Z,98614.58
2018-10-18T21:58:32.450Z,98614.98
2018-10-18T22:01:03.075Z,98616.42
2018-10-18T22:03:33.726Z,98613.67
2018-10-18T22:06:04.359Z,98623.00
2018-10-18T22:08:35.000Z,98617.86
2018-10-18T22:11:06.210Z,98617.17
2018-10-18T22:13:36.979Z,98619.19
2018-10-18T22:16:07.643Z,98623.17
2018-10-18T22:18:38.315Z,98622.80
2018-10-18T22:21:09.009Z,98621.73
2018-10-18T22:23:39.756Z,98618.64
2018-10-18T22:26:10.605Z,98618.31
2018-10-18T22:28:41.170Z,98611.27
2018-10-18T22:31:12.079Z,98608.55
2018-10-18T22:33:43.015Z,98603.16
2018-10-18T22:36:13.636Z,98602.69
2018-10-18T22:38:44.688Z,98606.49
2018-10-18T22:41:15.403Z,98606.60
2018-10-18T22:43:46.112Z,98604.22
2018-10-18T22:46:16.796Z,98601.23
2018-10-18T22:48:47.435Z,98604.08
2018-10-18T22:51:18.107Z,98600.63
2018-10-18T22:53:48.716Z,98598.57
2018-10-18T22:56:19.292Z,98596.64
2018-10-18T22:58:49.858Z,98596.44
2018-10-18T23:01:20.539Z,98596.06
2018-10-18T23:03:51.103Z,98588.09
2018-10-18T23:06:21.762Z,98584.72
2018-10-18T23:08:52.432Z,98579.20
2018-10-18T23:11:23.232Z,98581.60
2018-10-18T23:13:53.917Z,98586.27
2018-10-18T23:16:24.562Z,98586.73
2018-10-18T23:18:55.209Z,98586.85
2018-10-18T23:21:25.837Z,98589.45
2018-10-18T23:23:58.120Z,98584.83
2018-10-18T23:26:28.819Z,98586.94
2018-10-18T23:28:59.424Z,98578.95
2018-10-18T23:31:30.242Z,98590.91
2018-10-18T23:34:00.911Z,98585.77
2018-10-18T23:36:31.757Z,98590.28
2018-10-18T23:39:02.340Z,98588.14
2018-10-18T23:41:33.170Z,98594.56
2018-10-18T23:44:03.792Z,98591.45
2018-10-18T23:46:34.739Z,98582.61
2018-10-18T23:49:05.524Z,98583.47
2018-10-18T23:51:36.134Z,98585.69
2018-10-18T23:54:07.012Z,98585.20
2018-10-18T23:56:37.633Z,98587.14
2018-10-18T23:59:08.449Z,98584.27
